Aérodrome :
LOGIN :

S'inscrire | Disclaimer

   EN    FR    IT 

 










Légende :    VFR   VFR Marginal   IFR   IFR Intensif   IFR Très Intensif
Visi : 
Plafond : 
>= 8 km
>= 3000ft
5 à 8 km
1000 à 3000 ft
1500m à 5 km
500 à 1000 ft
800 à 1500m
200 à 500 ft
< 800m
< 200 ft
Symboles :   Orages  Brouillard  Fortes neiges  Fortes précipitations  Vent > 20 kt
SIGMETs :   Divers  Orages  Givrage  Turbulence  Onde Orograph.  Cendres Volcan.







- Altitude de l'aérodrome : 195 ft
- Voir les cartes d'approche


LFMY - Salon de Provence

DERNIER METAR :
  • 181100Z AUTO 11008KT 080V160 9999 BKN036 BKN110 OVC130 21/13 Q1018 NOSIG

METARs EXPIRÉS :
  • 181030Z AUTO 12009KT 9999 SCT035 OVC110 21/13 Q1018 NOSIG
  • 181000Z AUTO 11009KT 080V160 9999 BKN035 BKN120 21/12 Q1018 NOSIG
  • 180930Z AUTO 08011KT CAVOK 21/12 Q1018 BECMG 17012KT
  • 180900Z AUTO 08006KT 040V110 CAVOK 19/11 Q1019 BECMG 17012KT
  • 180830Z AUTO 06007KT CAVOK 17/10 Q1019 BECMG 17012KT
  • 180800Z AUTO 06006KT CAVOK 16/10 Q1019 BECMG 17012KT

TAF TAF LFMY
Valide du 18 à 09h jusqu'au 19 à 09h UTC


180800Z 1809/1909 07005KT CAVOK
BECMG 1809/1811 17012KT
BECMG 1820/1822 09008KT
TEMPO 1907/1909 09015G25KT
Pas de NOTAMs connus pour ce terrain.



MET'MAP, la Météo Aéronautique d'un coup d'oeil ! - Copyright ORBIFLY Décembre 2007 - Disclaimer

ORBIFLY MET'MAP TEAM :

Programmation & Développement : Alexandra Zaïnal
Conception & Développement : Baudouin d'Aumeries
Co-Programmation & Développement : Marc-Olivier Méhu
Soutien technique & logistique : Manuel Goepfert

Contact : metmap@orbifly.com




SOURCES & CREDITS :

   NOAA